createdAt,value
2023-05-10T00:00:18.739Z,25.00
2023-05-10T00:01:18.476Z,25.00
2023-05-10T00:02:18.510Z,25.00
2023-05-10T00:03:18.601Z,0.00
2023-05-10T00:04:18.743Z,0.00
2023-05-10T00:05:18.595Z,0.00
2023-05-10T00:06:18.624Z,0.00
2023-05-10T00:07:18.690Z,0.00
2023-05-10T00:08:18.724Z,0.00
2023-05-10T00:09:18.744Z,0.00
2023-05-10T00:10:18.902Z,6.56
2023-05-10T00:11:20.371Z,25.00
2023-05-10T00:12:18.854Z,25.00
2023-05-10T00:13:18.939Z,25.00
2023-05-10T00:14:18.879Z,25.00
2023-05-10T00:15:18.879Z,25.00
2023-05-10T00:16:18.898Z,26.15
2023-05-10T00:17:18.889Z,25.00
2023-05-10T00:18:18.900Z,26.00
2023-05-10T00:19:18.909Z,25.00
2023-05-10T00:20:19.167Z,25.00
2023-05-10T00:21:18.943Z,27.72
2023-05-10T00:22:18.963Z,25.83
2023-05-10T00:23:18.953Z,26.45
2023-05-10T00:24:18.971Z,28.03
2023-05-10T00:25:18.994Z,25.17
2023-05-10T00:26:19.007Z,28.21
2023-05-10T00:27:19.001Z,27.29
2023-05-10T00:28:19.044Z,26.56
2023-05-10T00:29:19.036Z,27.72
2023-05-10T00:30:19.291Z,27.05
2023-05-10T00:31:19.041Z,25.24
2023-05-10T00:32:19.209Z,26.76
2023-05-10T00:33:19.053Z,26.53
2023-05-10T00:34:19.763Z,28.39
2023-05-10T00:35:19.044Z,26.74
2023-05-10T00:36:19.050Z,28.04
2023-05-10T00:37:19.064Z,26.74
2023-05-10T00:38:19.082Z,25.60
2023-05-10T00:39:19.117Z,25.52
2023-05-10T00:40:19.266Z,27.99
2023-05-10T00:41:19.095Z,28.54
2023-05-10T00:42:19.092Z,26.09
2023-05-10T00:43:19.112Z,25.49
2023-05-10T00:44:19.109Z,27.24
2023-05-10T00:45:19.150Z,25.76
2023-05-10T00:46:19.185Z,25.00
2023-05-10T00:47:19.172Z,26.62
2023-05-10T00:48:19.225Z,28.23
2023-05-10T00:49:19.264Z,27.01
2023-05-10T00:50:19.326Z,28.97
2023-05-10T00:51:19.376Z,27.01
2023-05-10T00:52:19.420Z,26.02
2023-05-10T00:53:19.491Z,28.11
2023-05-10T00:54:19.519Z,28.56
2023-05-10T00:55:19.564Z,28.00
2023-05-10T00:56:19.613Z,25.89
2023-05-10T00:57:19.664Z,26.78
2023-05-10T00:58:19.717Z,30.04
2023-05-10T00:59:19.768Z,30.21
2023-05-10T01:00:19.813Z,27.28
2023-05-10T01:01:19.986Z,26.32
2023-05-10T01:02:20.002Z,27.23
2023-05-10T01:03:20.138Z,27.48
2023-05-10T01:04:20.024Z,30.36
2023-05-10T01:05:20.125Z,28.05
2023-05-10T01:06:20.137Z,25.51
2023-05-10T01:07:20.178Z,26.10
2023-05-10T01:08:20.246Z,26.50
2023-05-10T01:09:20.283Z,27.78
2023-05-10T01:10:20.332Z,30.04
2023-05-10T01:11:20.394Z,27.84
2023-05-10T01:12:20.505Z,29.96
2023-05-10T01:13:20.551Z,30.81
2023-05-10T01:14:20.547Z,29.98
2023-05-10T01:15:20.604Z,25.75
2023-05-10T01:16:20.714Z,28.73
2023-05-10T01:17:20.753Z,27.12
2023-05-10T01:18:20.764Z,28.60
2023-05-10T01:19:20.807Z,28.72
2023-05-10T01:20:20.859Z,29.64
2023-05-10T01:21:20.915Z,28.67
2023-05-10T01:22:20.978Z,29.62
2023-05-10T01:23:21.021Z,29.68
2023-05-10T01:24:21.068Z,27.24
2023-05-10T01:25:21.119Z,30.16
2023-05-10T01:26:21.169Z,29.04
2023-05-10T01:27:21.214Z,28.20
2023-05-10T01:28:21.265Z,28.82
2023-05-10T01:29:21.314Z,29.40
2023-05-10T01:31:20.456Z,27.81
2023-05-10T01:32:21.464Z,29.88
2023-05-10T01:33:21.573Z,28.38
2023-05-10T01:34:21.570Z,29.90
2023-05-10T01:35:21.613Z,31.84
2023-05-10T01:36:21.672Z,29.77
2023-05-10T01:37:21.731Z,31.30
2023-05-10T01:38:21.779Z,30.88
2023-05-10T01:39:21.831Z,29.97
2023-05-10T01:40:21.885Z,29.52
2023-05-10T01:41:21.952Z,28.54
2023-05-10T01:42:21.978Z,28.12
2023-05-10T01:43:22.032Z,28.74
2023-05-10T01:44:22.090Z,31.31
2023-05-10T01:45:22.138Z,32.89
2023-05-10T01:46:22.218Z,28.25
2023-05-10T01:47:22.252Z,30.26
2023-05-10T01:48:22.309Z,27.97
2023-05-10T01:49:22.392Z,28.98
2023-05-10T01:50:22.422Z,27.50
2023-05-10T01:51:22.461Z,28.08
2023-05-10T01:52:22.554Z,28.14
2023-05-10T01:53:22.586Z,27.36
2023-05-10T01:54:22.670Z,29.01
2023-05-10T01:55:22.676Z,29.81
2023-05-10T01:56:22.711Z,28.63
2023-05-10T01:57:22.766Z,28.20
2023-05-10T01:58:22.811Z,29.54
2023-05-10T01:59:22.871Z,29.92
2023-05-10T02:00:22.920Z,27.31
2023-05-10T02:01:23.036Z,26.15
2023-05-10T02:02:23.048Z,29.16
2023-05-10T02:03:23.128Z,31.86
2023-05-10T02:04:23.149Z,29.70
2023-05-10T02:05:23.223Z,29.53
2023-05-10T02:06:23.300Z,30.03
2023-05-10T02:07:23.296Z,28.77
2023-05-10T02:08:23.367Z,30.36
2023-05-10T02:09:23.404Z,30.67
2023-05-10T02:10:23.463Z,26.88
2023-05-10T02:11:23.530Z,30.97
2023-05-10T02:12:23.578Z,31.23
2023-05-10T02:13:23.675Z,29.30
2023-05-10T02:14:23.674Z,28.42
2023-05-10T02:15:23.729Z,31.92
2023-05-10T02:16:23.856Z,29.05
2023-05-10T02:17:23.853Z,29.96
2023-05-10T02:18:23.870Z,31.63
2023-05-10T02:19:23.930Z,31.70
2023-05-10T02:20:23.975Z,29.37
2023-05-10T02:21:24.066Z,27.41
2023-05-10T02:22:24.085Z,29.08
2023-05-10T02:23:24.149Z,30.59
2023-05-10T02:24:24.187Z,33.45
2023-05-10T02:25:24.260Z,29.43
2023-05-10T02:26:24.301Z,30.08
2023-05-10T02:27:24.356Z,28.66
2023-05-10T02:28:24.397Z,29.08
2023-05-10T02:29:24.444Z,29.50
2023-05-10T02:30:24.498Z,31.59
2023-05-10T02:31:24.551Z,30.74
2023-05-10T02:32:24.638Z,33.39
2023-05-10T02:33:24.655Z,28.42
2023-05-10T02:34:24.700Z,31.11
2023-05-10T02:35:24.809Z,33.18
2023-05-10T02:36:24.811Z,29.77
2023-05-10T02:37:24.981Z,30.18
2023-05-10T02:38:24.927Z,30.57
2023-05-10T02:39:24.969Z,27.63
2023-05-10T02:40:26.801Z,32.84
2023-05-10T02:41:25.033Z,32.93
2023-05-10T02:42:25.036Z,31.61
2023-05-10T02:43:25.048Z,31.68
2023-05-10T02:44:25.067Z,31.71
2023-05-10T02:45:25.071Z,32.40
2023-05-10T02:46:25.113Z,29.23
2023-05-10T02:47:25.065Z,30.82
2023-05-10T02:48:25.072Z,27.87
2023-05-10T02:49:25.088Z,30.26
2023-05-10T02:50:25.091Z,31.38
2023-05-10T02:51:25.103Z,29.01
2023-05-10T02:52:25.134Z,32.97
2023-05-10T02:53:25.146Z,30.39
2023-05-10T02:54:25.129Z,28.65
2023-05-10T02:55:25.140Z,28.18
2023-05-10T02:56:25.139Z,30.61
2023-05-10T02:57:25.153Z,32.07
2023-05-10T02:58:25.156Z,31.43
2023-05-10T02:59:25.182Z,30.23
2023-05-10T03:00:25.168Z,33.74
2023-05-10T03:01:25.197Z,29.37
2023-05-10T03:02:25.246Z,27.98
2023-05-10T03:03:25.203Z,29.69
2023-05-10T03:04:25.286Z,29.80
2023-05-10T03:05:25.216Z,28.00
2023-05-10T03:06:25.214Z,28.45
2023-05-10T03:07:25.240Z,30.16
2023-05-10T03:08:25.221Z,32.43
2023-05-10T03:09:25.247Z,30.76
2023-05-10T03:10:25.224Z,29.12
2023-05-10T03:11:25.245Z,29.34
2023-05-10T03:12:25.276Z,30.15
2023-05-10T03:13:25.367Z,30.45
2023-05-10T03:14:25.392Z,30.63
2023-05-10T03:15:25.467Z,30.52
2023-05-10T03:16:25.543Z,31.12
2023-05-10T03:17:25.620Z,29.91
2023-05-10T03:18:25.610Z,32.20
2023-05-10T03:19:25.679Z,31.61
2023-05-10T03:20:25.717Z,31.85
2023-05-10T03:21:25.770Z,29.92
2023-05-10T03:22:25.842Z,30.56
2023-05-10T03:23:25.887Z,31.70
2023-05-10T03:24:25.960Z,32.68
2023-05-10T03:25:26.032Z,29.70
2023-05-10T03:26:26.076Z,31.45
2023-05-10T03:27:26.135Z,30.43
2023-05-10T03:28:26.180Z,30.84
2023-05-10T03:29:26.230Z,30.41
2023-05-10T03:30:26.307Z,27.62
2023-05-10T03:31:26.399Z,33.26
2023-05-10T03:32:26.441Z,29.29
2023-05-10T03:33:26.461Z,29.35
2023-05-10T03:34:26.519Z,31.69
2023-05-10T03:35:26.577Z,33.25
2023-05-10T03:36:26.627Z,28.24
2023-05-10T03:37:26.694Z,30.37
2023-05-10T03:38:28.366Z,26.78
2023-05-10T03:39:26.749Z,27.17
2023-05-10T03:40:26.760Z,27.82
2023-05-10T03:41:26.786Z,29.03
2023-05-10T03:42:26.772Z,29.47
2023-05-10T03:43:26.782Z,29.05
2023-05-10T03:44:26.791Z,31.15
2023-05-10T03:45:26.804Z,32.37
2023-05-10T03:46:26.860Z,32.29
2023-05-10T03:47:26.813Z,30.58
2023-05-10T03:48:26.797Z,31.97
2023-05-10T03:49:26.807Z,30.71
2023-05-10T03:50:26.801Z,29.90
2023-05-10T03:51:26.816Z,28.38
2023-05-10T03:52:26.818Z,29.02
2023-05-10T03:53:26.818Z,32.21
2023-05-10T03:54:26.839Z,30.77
2023-05-10T03:55:26.826Z,30.36
2023-05-10T03:56:26.882Z,28.52
2023-05-10T03:57:26.992Z,32.15
2023-05-10T03:58:27.010Z,29.60
2023-05-10T03:59:27.076Z,31.37
2023-05-10T04:00:27.130Z,30.11
2023-05-10T04:01:27.192Z,30.71
2023-05-10T04:02:27.351Z,31.98
2023-05-10T04:03:27.349Z,28.12
2023-05-10T04:04:27.374Z,31.81
2023-05-10T04:05:27.439Z,26.96
2023-05-10T04:06:27.550Z,30.68
2023-05-10T04:07:27.571Z,29.32
2023-05-10T04:08:27.620Z,28.91
2023-05-10T04:09:27.676Z,30.03
2023-05-10T04:10:27.732Z,30.39
2023-05-10T04:11:27.796Z,30.13
2023-05-10T04:12:27.853Z,30.22
2023-05-10T04:13:28.006Z,30.45
2023-05-10T04:14:27.984Z,28.76
2023-05-10T04:15:28.059Z,31.61
2023-05-10T04:16:28.137Z,29.40
2023-05-10T04:17:28.191Z,29.64
2023-05-10T04:18:28.223Z,31.04
2023-05-10T04:19:28.266Z,29.42
2023-05-10T04:20:28.326Z,29.11
2023-05-10T04:21:28.404Z,29.64
2023-05-10T04:22:28.448Z,29.91
2023-05-10T04:23:28.499Z,31.11
2023-05-10T04:24:28.561Z,30.66
2023-05-10T04:25:28.616Z,28.91
2023-05-10T04:26:28.679Z,27.82
2023-05-10T04:27:28.739Z,29.93
2023-05-10T04:28:28.835Z,29.05
2023-05-10T04:29:28.890Z,31.22
2023-05-10T04:30:28.907Z,30.50
2023-05-10T04:31:29.074Z,28.01
2023-05-10T04:32:29.074Z,30.21
2023-05-10T04:33:29.124Z,29.24
2023-05-10T04:34:29.166Z,29.66
2023-05-10T04:35:29.206Z,27.03
2023-05-10T04:36:29.299Z,29.85
2023-05-10T04:37:29.325Z,26.49
2023-05-10T04:38:29.387Z,28.88
2023-05-10T04:39:29.441Z,27.08
2023-05-10T04:40:29.504Z,27.76
2023-05-10T04:41:29.623Z,26.43
2023-05-10T04:42:29.628Z,29.61
2023-05-10T04:43:29.685Z,28.78
2023-05-10T04:44:29.757Z,28.16
2023-05-10T04:45:29.842Z,26.82
2023-05-10T04:46:29.981Z,26.30
2023-05-10T04:47:29.961Z,27.74
2023-05-10T04:48:30.004Z,29.01
2023-05-10T04:49:30.077Z,27.09
2023-05-10T04:50:30.134Z,28.38
2023-05-10T04:51:30.200Z,28.76
2023-05-10T04:52:30.297Z,27.60
2023-05-10T04:53:30.328Z,30.13
2023-05-10T04:54:30.404Z,28.58
2023-05-10T04:55:30.460Z,29.94
2023-05-10T04:56:30.514Z,27.48
2023-05-10T04:57:30.594Z,30.57
2023-05-10T04:58:30.644Z,30.67
2023-05-10T04:59:30.707Z,29.04
2023-05-10T05:00:30.764Z,26.28
2023-05-10T05:01:30.898Z,29.28
2023-05-10T05:02:30.981Z,30.18
2023-05-10T05:03:31.040Z,30.54
2023-05-10T05:04:31.055Z,29.69
2023-05-10T05:05:31.072Z,29.76
2023-05-10T05:06:31.137Z,27.67
2023-05-10T05:07:31.187Z,28.31
2023-05-10T05:08:31.250Z,25.57
2023-05-10T05:09:31.322Z,28.67
2023-05-10T05:10:31.384Z,30.23
2023-05-10T05:11:31.451Z,30.12
2023-05-10T05:12:31.507Z,30.34
2023-05-10T05:13:31.599Z,28.42
2023-05-10T05:14:31.627Z,27.87
2023-05-10T05:15:31.688Z,29.35
2023-05-10T05:16:31.882Z,30.15
2023-05-10T05:17:31.886Z,31.75
2023-05-10T05:18:31.873Z,28.88
2023-05-10T05:19:32.383Z,29.29
2023-05-10T05:20:32.386Z,32.37
2023-05-10T05:21:32.052Z,37.96
2023-05-10T05:22:32.113Z,32.08
2023-05-10T05:23:32.191Z,31.33
2023-05-10T05:24:32.238Z,33.51
2023-05-10T05:25:32.305Z,30.99
2023-05-10T05:26:32.367Z,28.74
2023-05-10T05:27:32.423Z,33.63
2023-05-10T05:28:32.473Z,31.15
2023-05-10T05:29:32.524Z,28.97
2023-05-10T05:30:32.583Z,31.43
2023-05-10T05:31:32.695Z,33.09
2023-05-10T05:32:32.782Z,31.72
2023-05-10T05:33:32.776Z,34.31
2023-05-10T05:34:32.815Z,34.79
2023-05-10T05:35:32.878Z,38.04
2023-05-10T05:36:32.931Z,37.05
2023-05-10T05:37:32.982Z,37.08
2023-05-10T05:38:33.039Z,39.01
2023-05-10T05:39:33.094Z,38.96
2023-05-10T05:40:33.138Z,40.08
2023-05-10T05:41:33.203Z,41.46
2023-05-10T05:42:33.261Z,42.08
2023-05-10T05:43:33.665Z,45.08
2023-05-10T05:44:33.383Z,43.92
2023-05-10T05:45:33.451Z,48.64
2023-05-10T05:46:33.474Z,49.04
2023-05-10T05:47:33.564Z,49.96
2023-05-10T05:48:33.595Z,49.51
2023-05-10T05:49:33.912Z,49.36
2023-05-10T05:50:33.886Z,50.11
2023-05-10T05:51:33.727Z,50.61
2023-05-10T05:52:33.783Z,53.20
2023-05-10T05:53:33.830Z,62.06
2023-05-10T05:54:33.898Z,69.57
2023-05-10T05:55:33.920Z,69.96
2023-05-10T05:56:33.966Z,67.85
2023-05-10T05:57:33.995Z,70.61
2023-05-10T05:58:34.412Z,77.28
2023-05-10T05:59:34.389Z,80.58
2023-05-10T06:00:34.130Z,82.19
2023-05-10T06:01:34.144Z,91.76
2023-05-10T06:02:34.317Z,93.69
2023-05-10T06:03:34.245Z,100.10
2023-05-10T06:04:34.446Z,111.93
2023-05-10T06:05:34.275Z,110.70
2023-05-10T06:06:34.271Z,119.28
2023-05-10T06:07:34.394Z,126.54
2023-05-10T06:08:34.446Z,131.28
2023-05-10T06:09:34.340Z,139.62
2023-05-10T06:10:34.372Z,143.26
2023-05-10T06:11:34.374Z,145.56
2023-05-10T06:12:34.393Z,152.56
2023-05-10T06:13:34.543Z,155.64
2023-05-10T06:14:35.370Z,158.65
2023-05-10T06:15:34.376Z,164.74
2023-05-10T06:16:34.457Z,169.30
2023-05-10T06:17:34.399Z,173.43
2023-05-10T06:18:34.365Z,173.74
2023-05-10T06:19:34.438Z,178.89
2023-05-10T06:20:34.378Z,183.24
2023-05-10T06:21:34.400Z,188.02
2023-05-10T06:22:34.402Z,191.35
2023-05-10T06:23:34.393Z,191.80
2023-05-10T06:24:34.904Z,194.21
2023-05-10T06:25:34.448Z,200.80
2023-05-10T06:26:34.475Z,202.50
2023-05-10T06:27:34.497Z,204.46
2023-05-10T06:28:34.514Z,210.26
2023-05-10T06:29:34.908Z,210.59
2023-05-10T06:30:34.600Z,214.20
2023-05-10T06:31:34.705Z,216.38
2023-05-10T06:32:34.743Z,219.97
2023-05-10T06:33:34.742Z,222.08
2023-05-10T06:34:34.905Z,224.77
2023-05-10T06:35:34.882Z,227.66
2023-05-10T06:36:35.958Z,231.54
2023-05-10T06:37:35.028Z,234.98
2023-05-10T06:38:35.406Z,237.48
2023-05-10T06:39:35.143Z,240.50
2023-05-10T06:40:35.213Z,240.84
2023-05-10T06:41:35.280Z,244.20
2023-05-10T06:42:35.328Z,245.13
2023-05-10T06:43:35.408Z,248.88
2023-05-10T06:44:35.920Z,250.00
2023-05-10T06:45:35.517Z,249.58
2023-05-10T06:46:35.592Z,247.42
2023-05-10T06:47:38.698Z,243.37
2023-05-10T06:48:35.634Z,243.57
2023-05-10T06:49:35.919Z,243.57
2023-05-10T06:50:35.931Z,244.11
2023-05-10T06:51:35.638Z,243.77
2023-05-10T06:52:35.643Z,243.80
2023-05-10T06:53:35.682Z,242.89
2023-05-10T06:54:35.925Z,243.36
2023-05-10T06:55:35.644Z,242.45
2023-05-10T06:56:36.647Z,243.75
2023-05-10T06:57:35.645Z,243.21
2023-05-10T06:58:51.539Z,242.68
2023-05-10T06:59:35.745Z,243.20
2023-05-10T07:00:38.898Z,244.13
2023-05-10T07:01:35.756Z,243.22
2023-05-10T07:02:35.677Z,243.96
2023-05-10T07:03:35.658Z,244.45
2023-05-10T07:04:35.960Z,245.33
2023-05-10T07:05:35.878Z,244.18
2023-05-10T07:06:35.662Z,245.95
2023-05-10T07:07:35.686Z,245.78
2023-05-10T07:08:35.668Z,246.66
2023-05-10T07:09:36.005Z,244.16
2023-05-10T07:10:35.665Z,244.82
2023-05-10T07:11:36.679Z,242.51
2023-05-10T07:12:35.808Z,244.40
2023-05-10T07:13:35.721Z,241.20
2023-05-10T07:14:35.680Z,240.60
2023-05-10T07:15:35.685Z,238.69
2023-05-10T07:16:35.928Z,238.13
2023-05-10T07:17:35.790Z,238.71
2023-05-10T07:18:35.801Z,236.10
2023-05-10T07:19:35.732Z,239.16
2023-05-10T07:20:35.724Z,237.51
2023-05-10T07:21:35.792Z,236.05
2023-05-10T07:22:35.739Z,233.65
2023-05-10T07:23:35.754Z,236.48
2023-05-10T07:24:35.764Z,234.61
2023-05-10T07:25:35.823Z,234.71
2023-05-10T07:26:35.927Z,235.58
2023-05-10T07:27:35.788Z,234.35
2023-05-10T07:28:35.945Z,233.29
2023-05-10T07:29:35.786Z,233.38
2023-05-10T07:30:35.824Z,232.95
2023-05-10T07:31:35.811Z,233.25
2023-05-10T07:32:36.044Z,232.30
2023-05-10T07:33:35.827Z,232.80
2023-05-10T07:34:35.963Z,230.20
2023-05-10T07:35:35.853Z,229.67
2023-05-10T07:36:35.865Z,230.54
2023-05-10T07:37:35.879Z,226.91
2023-05-10T07:38:35.853Z,227.03
2023-05-10T07:39:36.079Z,230.51
2023-05-10T07:40:35.916Z,228.76
2023-05-10T07:41:36.221Z,231.67
2023-05-10T07:42:35.925Z,237.37
2023-05-10T07:43:35.917Z,236.89
2023-05-10T07:44:35.971Z,237.94
2023-05-10T07:45:35.947Z,241.01
2023-05-10T07:46:35.955Z,239.46
2023-05-10T07:47:35.958Z,240.32
2023-05-10T07:48:35.970Z,243.04
2023-05-10T07:49:35.960Z,248.13
2023-05-10T07:50:35.965Z,247.26
2023-05-10T07:51:35.967Z,248.52
2023-05-10T07:52:36.388Z,248.12
2023-05-10T07:53:35.996Z,240.88
2023-05-10T07:54:36.454Z,238.39
2023-05-10T07:55:36.012Z,236.96
2023-05-10T07:56:39.255Z,239.93
2023-05-10T07:57:36.027Z,240.25
2023-05-10T07:58:37.059Z,240.22
2023-05-10T07:59:36.459Z,240.21
2023-05-10T08:00:36.106Z,242.14
2023-05-10T08:01:36.448Z,240.75
2023-05-10T08:02:36.301Z,241.71
2023-05-10T08:03:36.233Z,243.36
2023-05-10T08:04:36.228Z,243.94
2023-05-10T08:05:36.118Z,241.65
2023-05-10T08:06:36.441Z,243.68
2023-05-10T08:07:36.131Z,243.45
2023-05-10T08:08:36.132Z,244.08
2023-05-10T08:09:36.145Z,242.02
2023-05-10T08:10:36.156Z,237.49
2023-05-10T08:11:36.164Z,239.80
2023-05-10T08:12:36.185Z,239.55
2023-05-10T08:13:36.166Z,239.50
2023-05-10T08:14:36.166Z,239.81
2023-05-10T08:15:36.245Z,237.60
2023-05-10T08:16:36.180Z,238.98
2023-05-10T08:17:36.211Z,239.54
2023-05-10T08:18:36.202Z,239.30
2023-05-10T08:19:36.213Z,240.47
2023-05-10T08:20:36.184Z,236.11
2023-05-10T08:21:36.189Z,238.54
2023-05-10T08:22:36.210Z,236.50
2023-05-10T08:23:36.201Z,235.30
2023-05-10T08:24:36.209Z,235.84
2023-05-10T08:25:36.969Z,235.39
2023-05-10T08:26:36.182Z,233.65
2023-05-10T08:27:36.245Z,235.67
2023-05-10T08:28:36.212Z,232.85
2023-05-10T08:29:48.937Z,233.97
2023-05-10T08:30:36.195Z,234.38
2023-05-10T08:31:36.262Z,235.15
2023-05-10T08:32:36.229Z,235.60
2023-05-10T08:33:36.201Z,235.01
2023-05-10T08:34:36.207Z,233.60
2023-05-10T08:35:36.445Z,234.84
2023-05-10T08:36:36.209Z,231.26
2023-05-10T08:37:36.244Z,232.59
2023-05-10T08:38:36.228Z,230.48
2023-05-10T08:39:36.481Z,232.14
2023-05-10T08:40:43.703Z,230.22
2023-05-10T08:41:36.502Z,230.71
2023-05-10T08:42:37.218Z,231.78
2023-05-10T08:43:36.246Z,232.87
2023-05-10T08:44:36.290Z,231.65
2023-05-10T08:45:37.531Z,229.90
2023-05-10T08:46:36.324Z,230.13
2023-05-10T08:47:36.311Z,229.84
2023-05-10T08:48:36.261Z,227.89
2023-05-10T08:49:36.268Z,226.37
2023-05-10T08:50:36.452Z,226.72
2023-05-10T08:51:36.277Z,224.58
2023-05-10T08:52:36.301Z,224.16
2023-05-10T08:53:36.328Z,224.25
2023-05-10T08:54:36.499Z,224.16
2023-05-10T08:55:36.371Z,222.05
2023-05-10T08:56:36.399Z,223.34
2023-05-10T08:57:36.421Z,223.12
2023-05-10T08:58:36.457Z,220.89
2023-05-10T08:59:36.466Z,218.90
2023-05-10T09:00:36.523Z,222.99
2023-05-10T09:01:36.505Z,220.07
2023-05-10T09:02:36.556Z,220.14
2023-05-10T09:03:36.577Z,219.37
2023-05-10T09:04:37.062Z,218.74
2023-05-10T09:05:36.894Z,219.19
2023-05-10T09:06:36.615Z,217.86
2023-05-10T09:07:36.664Z,218.21
2023-05-10T09:08:36.671Z,216.73
2023-05-10T09:09:36.970Z,216.97
2023-05-10T09:10:36.713Z,217.55
2023-05-10T09:11:36.743Z,217.65
2023-05-10T09:12:36.791Z,218.55
2023-05-10T09:13:36.788Z,214.94
2023-05-10T09:14:37.433Z,217.22
2023-05-10T09:15:36.967Z,215.68
2023-05-10T09:16:36.936Z,217.31
2023-05-10T09:17:36.919Z,212.77
2023-05-10T09:18:36.936Z,215.04
2023-05-10T09:19:36.936Z,216.82
2023-05-10T09:20:37.465Z,215.07
2023-05-10T09:21:37.092Z,213.77
2023-05-10T09:22:37.035Z,213.71
2023-05-10T09:23:37.041Z,213.53
2023-05-10T09:24:37.067Z,213.26
2023-05-10T09:25:37.471Z,213.47
2023-05-10T09:26:37.189Z,211.03
2023-05-10T09:27:37.162Z,212.01
2023-05-10T09:28:37.167Z,217.94
2023-05-10T09:29:37.494Z,246.54
2023-05-10T09:30:37.306Z,241.05
2023-05-10T09:31:38.326Z,238.29
2023-05-10T09:32:37.608Z,226.94
2023-05-10T09:33:40.549Z,210.89
2023-05-10T09:34:37.469Z,210.99
2023-05-10T09:35:38.473Z,216.52
2023-05-10T09:36:37.437Z,233.81
2023-05-10T09:37:37.370Z,233.58
2023-05-10T09:38:37.476Z,227.73
2023-05-10T09:39:37.394Z,187.75
2023-05-10T09:40:37.397Z,162.70
2023-05-10T09:41:37.400Z,143.06
2023-05-10T09:42:37.398Z,125.92
2023-05-10T09:43:37.476Z,120.07
2023-05-10T09:44:37.475Z,137.66
2023-05-10T09:45:39.117Z,151.96
2023-05-10T09:46:37.670Z,166.94
2023-05-10T09:47:37.553Z,194.35
2023-05-10T09:48:37.594Z,221.41
2023-05-10T09:49:37.979Z,234.71
2023-05-10T09:50:37.585Z,246.32
2023-05-10T09:51:37.662Z,250.00
2023-05-10T09:52:37.568Z,250.92
2023-05-10T09:53:37.980Z,249.98
2023-05-10T09:54:37.644Z,250.00
2023-05-10T09:55:37.591Z,249.59
2023-05-10T09:56:38.015Z,249.42
2023-05-10T09:57:37.589Z,249.63
2023-05-10T09:58:37.586Z,249.73
2023-05-10T09:59:37.599Z,250.00
2023-05-10T10:00:37.990Z,250.00
2023-05-10T10:01:37.798Z,249.82
2023-05-10T10:02:37.665Z,248.93
2023-05-10T10:03:37.618Z,249.61
2023-05-10T10:04:37.781Z,249.42
2023-05-10T10:05:37.997Z,249.61
2023-05-10T10:06:37.631Z,247.85
2023-05-10T10:07:37.644Z,249.60
2023-05-10T10:08:37.636Z,246.22
2023-05-10T10:09:37.637Z,241.97
2023-05-10T10:10:37.998Z,246.58
2023-05-10T10:11:37.650Z,248.78
2023-05-10T10:12:37.655Z,250.00
2023-05-10T10:13:37.929Z,249.84
2023-05-10T10:14:37.671Z,249.93
2023-05-10T10:15:38.016Z,249.37
2023-05-10T10:16:43.688Z,249.82
2023-05-10T10:17:37.785Z,250.24
2023-05-10T10:18:38.046Z,251.71
2023-05-10T10:19:38.293Z,253.57
2023-05-10T10:20:38.028Z,258.80
2023-05-10T10:21:37.758Z,264.85
2023-05-10T10:22:37.761Z,250.00
2023-05-10T10:23:37.781Z,249.85
2023-05-10T10:24:37.759Z,249.86
2023-05-10T10:25:37.996Z,249.23
2023-05-10T10:26:38.782Z,250.00
2023-05-10T10:27:37.769Z,248.54
2023-05-10T10:28:37.771Z,250.00
2023-05-10T10:29:37.785Z,249.81
2023-05-10T10:30:37.995Z,248.21
2023-05-10T10:31:37.883Z,249.27
2023-05-10T10:32:37.756Z,247.72
2023-05-10T10:33:37.810Z,249.00
2023-05-10T10:34:37.773Z,246.69
2023-05-10T10:35:37.998Z,245.07
2023-05-10T10:36:37.834Z,248.39
2023-05-10T10:37:37.760Z,248.35
2023-05-10T10:38:37.770Z,247.82
2023-05-10T10:39:38.086Z,248.28
2023-05-10T10:40:37.778Z,249.64
2023-05-10T10:41:38.013Z,245.57
2023-05-10T10:42:37.839Z,249.76
2023-05-10T10:43:38.878Z,247.92
2023-05-10T10:44:37.908Z,249.28
2023-05-10T10:45:37.927Z,250.00
2023-05-10T10:46:37.976Z,249.65
2023-05-10T10:47:38.015Z,245.56
2023-05-10T10:48:37.997Z,249.65
2023-05-10T10:49:38.043Z,245.84
2023-05-10T10:50:38.322Z,248.20
2023-05-10T10:51:38.506Z,248.21
2023-05-10T10:52:38.186Z,248.17
2023-05-10T10:53:38.129Z,248.21
2023-05-10T10:54:38.153Z,248.42
2023-05-10T10:55:38.172Z,245.64
2023-05-10T10:56:38.229Z,245.94
2023-05-10T10:57:38.514Z,248.24
2023-05-10T10:58:38.229Z,250.00
2023-05-10T10:59:38.243Z,249.48
2023-05-10T11:00:38.293Z,246.47
2023-05-10T11:01:38.790Z,246.06
2023-05-10T11:02:38.299Z,248.43
2023-05-10T11:03:38.317Z,246.32
2023-05-10T11:04:38.621Z,248.51
2023-05-10T11:05:38.349Z,250.77
2023-05-10T11:06:38.385Z,245.45
2023-05-10T11:07:38.400Z,241.54
2023-05-10T11:08:38.454Z,241.70
2023-05-10T11:09:38.518Z,239.78
2023-05-10T11:10:38.453Z,243.53
2023-05-10T11:11:38.508Z,238.47
2023-05-10T11:12:38.510Z,239.35
2023-05-10T11:13:38.546Z,239.51
2023-05-10T11:14:38.571Z,241.15
2023-05-10T11:15:38.605Z,240.86
2023-05-10T11:16:39.137Z,240.22
2023-05-10T11:17:38.704Z,240.52
2023-05-10T11:18:38.753Z,237.63
2023-05-10T11:19:38.753Z,239.14
2023-05-10T11:20:38.799Z,239.40
2023-05-10T11:21:38.843Z,239.15
2023-05-10T11:22:38.895Z,237.72
2023-05-10T11:23:38.946Z,238.04
2023-05-10T11:24:39.089Z,236.18
2023-05-10T11:25:39.052Z,236.75
2023-05-10T11:26:39.105Z,236.08
2023-05-10T11:27:39.153Z,236.58
2023-05-10T11:28:39.197Z,236.47
2023-05-10T11:29:39.252Z,236.24
2023-05-10T11:30:39.336Z,235.64
2023-05-10T11:31:39.518Z,234.06
2023-05-10T11:32:39.457Z,233.43
2023-05-10T11:33:39.488Z,232.44
2023-05-10T11:34:39.564Z,233.20
2023-05-10T11:35:41.756Z,231.81
2023-05-10T11:36:39.616Z,231.98
2023-05-10T11:37:39.613Z,232.13
2023-05-10T11:38:39.651Z,231.39
2023-05-10T11:39:39.603Z,230.55
2023-05-10T11:40:39.641Z,231.02
2023-05-10T11:41:41.053Z,228.69
2023-05-10T11:42:40.018Z,228.85
2023-05-10T11:43:39.606Z,228.90
2023-05-10T11:44:39.621Z,228.73
2023-05-10T11:45:39.619Z,227.23
2023-05-10T11:46:39.676Z,226.46
2023-05-10T11:47:42.071Z,226.60
2023-05-10T11:48:39.628Z,226.74
2023-05-10T11:49:39.636Z,226.70
2023-05-10T11:50:39.635Z,225.97
2023-05-10T11:51:39.640Z,224.76
2023-05-10T11:52:39.647Z,225.04
2023-05-10T11:53:39.640Z,224.03
2023-05-10T11:54:39.632Z,223.95
2023-05-10T11:55:39.637Z,223.92
2023-05-10T11:56:39.677Z,223.56
2023-05-10T11:57:39.653Z,222.57
2023-05-10T11:58:40.025Z,222.20
2023-05-10T11:59:41.714Z,222.67
2023-05-10T12:00:39.666Z,222.81
2023-05-10T12:01:40.032Z,222.73
2023-05-10T12:02:39.799Z,221.59
2023-05-10T12:03:39.882Z,220.57
2023-05-10T12:04:39.729Z,219.89
2023-05-10T12:05:41.592Z,219.42
2023-05-10T12:06:39.780Z,219.58
2023-05-10T12:07:39.729Z,219.68
2023-05-10T12:08:39.807Z,218.89
2023-05-10T12:09:44.159Z,217.93
2023-05-10T12:10:39.766Z,219.66
2023-05-10T12:11:42.501Z,220.16
2023-05-10T12:12:39.805Z,219.72
2023-05-10T12:13:39.779Z,219.87
2023-05-10T12:14:39.794Z,219.61
2023-05-10T12:15:39.795Z,218.46
2023-05-10T12:16:39.842Z,217.27
2023-05-10T12:17:41.970Z,216.43
2023-05-10T12:18:39.833Z,216.54
2023-05-10T12:19:39.888Z,216.59
2023-05-10T12:20:39.831Z,215.87
2023-05-10T12:21:40.100Z,215.27
2023-05-10T12:22:39.845Z,214.20
2023-05-10T12:23:39.859Z,213.08
2023-05-10T12:24:39.862Z,213.04
2023-05-10T12:25:39.891Z,212.06
2023-05-10T12:26:40.035Z,210.73
2023-05-10T12:27:39.893Z,212.22
2023-05-10T12:28:39.904Z,210.97
2023-05-10T12:29:41.553Z,210.53
2023-05-10T12:30:39.892Z,213.50
2023-05-10T12:31:39.937Z,210.71
2023-05-10T12:32:39.920Z,209.16
2023-05-10T12:33:39.920Z,209.15
2023-05-10T12:34:39.974Z,207.71
2023-05-10T12:35:41.173Z,208.19
2023-05-10T12:36:39.919Z,208.36
2023-05-10T12:37:39.946Z,208.53
2023-05-10T12:38:39.934Z,207.47
2023-05-10T12:39:39.942Z,207.29
2023-05-10T12:40:39.951Z,206.33
2023-05-10T12:41:41.473Z,205.70